sensor_id;sensor_type;location;lat;lon;timestamp;temperature;humidity
56729;DHT22;42612;52.232;7.560;2023-07-24T00:01:31;22.10;62.90
56729;DHT22;42612;52.232;7.560;2023-07-24T00:03:56;22.10;63.00
56729;DHT22;42612;52.232;7.560;2023-07-24T00:06:23;22.10;63.40
56729;DHT22;42612;52.232;7.560;2023-07-24T00:08:49;22.00;63.50
56729;DHT22;42612;52.232;7.560;2023-07-24T00:11:14;22.00;63.30
56729;DHT22;42612;52.232;7.560;2023-07-24T00:13:40;22.00;62.80
56729;DHT22;42612;52.232;7.560;2023-07-24T00:16:07;22.10;62.80
56729;DHT22;42612;52.232;7.560;2023-07-24T00:18:33;22.00;62.20
56729;DHT22;42612;52.232;7.560;2023-07-24T00:20:58;22.00;62.40
56729;DHT22;42612;52.232;7.560;2023-07-24T00:23:24;22.00;63.10
56729;DHT22;42612;52.232;7.560;2023-07-24T00:25:50;22.00;63.80
56729;DHT22;42612;52.232;7.560;2023-07-24T00:28:15;22.00;62.80
56729;DHT22;42612;52.232;7.560;2023-07-24T00:30:42;21.90;61.90
56729;DHT22;42612;52.232;7.560;2023-07-24T00:33:07;22.00;62.10
56729;DHT22;42612;52.232;7.560;2023-07-24T00:35:33;22.00;62.90
56729;DHT22;42612;52.232;7.560;2023-07-24T00:37:59;22.00;62.40
56729;DHT22;42612;52.232;7.560;2023-07-24T00:40:24;21.90;62.30
56729;DHT22;42612;52.232;7.560;2023-07-24T00:42:50;21.90;62.60
56729;DHT22;42612;52.232;7.560;2023-07-24T00:45:15;21.90;63.40
56729;DHT22;42612;52.232;7.560;2023-07-24T00:47:42;21.90;62.50
56729;DHT22;42612;52.232;7.560;2023-07-24T00:50:08;21.90;62.80
56729;DHT22;42612;52.232;7.560;2023-07-24T00:52:34;21.90;62.90
56729;DHT22;42612;52.232;7.560;2023-07-24T00:55:00;21.90;62.60
56729;DHT22;42612;52.232;7.560;2023-07-24T00:57:26;22.00;62.50
56729;DHT22;42612;52.232;7.560;2023-07-24T00:59:51;22.00;62.90
56729;DHT22;42612;52.232;7.560;2023-07-24T01:02:17;21.90;63.60
56729;DHT22;42612;52.232;7.560;2023-07-24T01:04:43;22.00;63.50
56729;DHT22;42612;52.232;7.560;2023-07-24T01:07:08;22.00;63.60
56729;DHT22;42612;52.232;7.560;2023-07-24T01:09:34;22.00;63.90
56729;DHT22;42612;52.232;7.560;2023-07-24T01:12:04;22.00;63.80
56729;DHT22;42612;52.232;7.560;2023-07-24T01:14:47;22.00;64.60
56729;DHT22;42612;52.232;7.560;2023-07-24T01:17:15;22.00;64.50
56729;DHT22;42612;52.232;7.560;2023-07-24T01:19:43;22.10;64.30
56729;DHT22;42612;52.232;7.560;2023-07-24T01:27:45;22.10;64.00
56729;DHT22;42612;52.232;7.560;2023-07-24T01:30:11;22.10;64.00
56729;DHT22;42612;52.232;7.560;2023-07-24T01:32:39;22.10;64.00
56729;DHT22;42612;52.232;7.560;2023-07-24T01:35:05;22.10;63.50
56729;DHT22;42612;52.232;7.560;2023-07-24T01:37:31;22.10;64.70
56729;DHT22;42612;52.232;7.560;2023-07-24T01:39:57;22.10;63.30
56729;DHT22;42612;52.232;7.560;2023-07-24T01:42:24;22.10;63.80
56729;DHT22;42612;52.232;7.560;2023-07-24T01:44:53;22.10;63.10
56729;DHT22;42612;52.232;7.560;2023-07-24T01:47:19;22.10;62.80
56729;DHT22;42612;52.232;7.560;2023-07-24T01:49:45;22.10;63.30
56729;DHT22;42612;52.232;7.560;2023-07-24T01:52:11;22.10;63.30
56729;DHT22;42612;52.232;7.560;2023-07-24T01:54:37;22.10;63.70
56729;DHT22;42612;52.232;7.560;2023-07-24T01:57:02;22.10;64.00
56729;DHT22;42612;52.232;7.560;2023-07-24T01:59:28;22.10;64.40
56729;DHT22;42612;52.232;7.560;2023-07-24T02:01:54;22.10;64.10
56729;DHT22;42612;52.232;7.560;2023-07-24T02:04:19;22.10;63.90
56729;DHT22;42612;52.232;7.560;2023-07-24T02:06:50;22.10;64.40
56729;DHT22;42612;52.232;7.560;2023-07-24T02:09:19;22.10;64.30
56729;DHT22;42612;52.232;7.560;2023-07-24T02:11:45;22.10;63.90
56729;DHT22;42612;52.232;7.560;2023-07-24T02:14:11;22.10;63.90
56729;DHT22;42612;52.232;7.560;2023-07-24T02:16:37;22.10;63.70
56729;DHT22;42612;52.232;7.560;2023-07-24T02:19:03;22.10;63.90
56729;DHT22;42612;52.232;7.560;2023-07-24T02:21:29;22.20;64.20
56729;DHT22;42612;52.232;7.560;2023-07-24T02:23:54;22.20;63.80
56729;DHT22;42612;52.232;7.560;2023-07-24T02:26:20;22.10;64.50
56729;DHT22;42612;52.232;7.560;2023-07-24T02:28:45;22.10;63.90
56729;DHT22;42612;52.232;7.560;2023-07-24T02:31:11;22.20;63.90
56729;DHT22;42612;52.232;7.560;2023-07-24T02:33:37;22.20;63.70
56729;DHT22;42612;52.232;7.560;2023-07-24T02:36:02;22.20;63.60
56729;DHT22;42612;52.232;7.560;2023-07-24T02:38:28;22.10;63.90
56729;DHT22;42612;52.232;7.560;2023-07-24T02:40:54;22.20;63.70
56729;DHT22;42612;52.232;7.560;2023-07-24T02:43:19;22.20;63.80
56729;DHT22;42612;52.232;7.560;2023-07-24T02:45:45;22.10;63.70
56729;DHT22;42612;52.232;7.560;2023-07-24T02:48:11;22.20;64.00
56729;DHT22;42612;52.232;7.560;2023-07-24T02:50:36;22.10;64.00
56729;DHT22;42612;52.232;7.560;2023-07-24T02:53:02;22.20;63.70
56729;DHT22;42612;52.232;7.560;2023-07-24T02:55:28;22.10;63.60
56729;DHT22;42612;52.232;7.560;2023-07-24T02:57:53;22.10;63.70
56729;DHT22;42612;52.232;7.560;2023-07-24T03:00:19;22.10;63.60
56729;DHT22;42612;52.232;7.560;2023-07-24T03:02:44;22.10;63.60
56729;DHT22;42612;52.232;7.560;2023-07-24T03:05:10;22.20;63.60
56729;DHT22;42612;52.232;7.560;2023-07-24T03:07:36;22.10;63.80
56729;DHT22;42612;52.232;7.560;2023-07-24T03:10:02;22.10;63.80
56729;DHT22;42612;52.232;7.560;2023-07-24T03:12:28;22.10;63.90
56729;DHT22;42612;52.232;7.560;2023-07-24T03:14:53;22.20;63.70
56729;DHT22;42612;52.232;7.560;2023-07-24T03:17:19;22.10;63.50
56729;DHT22;42612;52.232;7.560;2023-07-24T03:19:44;22.20;63.70
56729;DHT22;42612;52.232;7.560;2023-07-24T03:22:10;22.20;63.60
56729;DHT22;42612;52.232;7.560;2023-07-24T03:24:36;22.20;63.60
56729;DHT22;42612;52.232;7.560;2023-07-24T03:27:01;22.20;63.50
56729;DHT22;42612;52.232;7.560;2023-07-24T03:29:27;22.20;63.50
56729;DHT22;42612;52.232;7.560;2023-07-24T03:31:53;22.20;64.00
56729;DHT22;42612;52.232;7.560;2023-07-24T03:34:18;22.20;63.80
56729;DHT22;42612;52.232;7.560;2023-07-24T03:36:44;22.10;63.80
56729;DHT22;42612;52.232;7.560;2023-07-24T03:39:10;22.20;63.70
56729;DHT22;42612;52.232;7.560;2023-07-24T03:41:36;22.20;63.70
56729;DHT22;42612;52.232;7.560;2023-07-24T03:44:02;22.20;63.70
56729;DHT22;42612;52.232;7.560;2023-07-24T03:46:28;22.20;63.70
56729;DHT22;42612;52.232;7.560;2023-07-24T03:48:54;22.20;63.60
56729;DHT22;42612;52.232;7.560;2023-07-24T03:51:19;22.20;63.70
56729;DHT22;42612;52.232;7.560;2023-07-24T03:53:45;22.20;63.90
56729;DHT22;42612;52.232;7.560;2023-07-24T03:56:11;22.20;63.80
56729;DHT22;42612;52.232;7.560;2023-07-24T03:58:37;22.20;63.70
56729;DHT22;42612;52.232;7.560;2023-07-24T04:01:04;22.20;63.60
56729;DHT22;42612;52.232;7.560;2023-07-24T04:03:29;22.10;63.70
56729;DHT22;42612;52.232;7.560;2023-07-24T04:05:55;22.20;63.70
56729;DHT22;42612;52.232;7.560;2023-07-24T04:08:20;22.20;63.50
56729;DHT22;42612;52.232;7.560;2023-07-24T04:10:46;22.20;63.50
56729;DHT22;42612;52.232;7.560;2023-07-24T04:13:12;22.20;63.60
56729;DHT22;42612;52.232;7.560;2023-07-24T04:15:37;22.20;63.60
56729;DHT22;42612;52.232;7.560;2023-07-24T04:18:04;22.20;63.60
56729;DHT22;42612;52.232;7.560;2023-07-24T04:20:30;22.20;63.60
56729;DHT22;42612;52.232;7.560;2023-07-24T04:22:56;22.20;63.60
56729;DHT22;42612;52.232;7.560;2023-07-24T04:25:21;22.20;63.50
56729;DHT22;42612;52.232;7.560;2023-07-24T04:27:47;22.20;63.60
56729;DHT22;42612;52.232;7.560;2023-07-24T04:30:13;22.20;63.60
56729;DHT22;42612;52.232;7.560;2023-07-24T04:32:38;22.30;63.70
56729;DHT22;42612;52.232;7.560;2023-07-24T04:35:04;22.30;63.60
56729;DHT22;42612;52.232;7.560;2023-07-24T04:37:30;22.30;63.80
56729;DHT22;42612;52.232;7.560;2023-07-24T04:39:56;22.30;63.60
56729;DHT22;42612;52.232;7.560;2023-07-24T04:42:22;22.30;63.60
56729;DHT22;42612;52.232;7.560;2023-07-24T04:44:47;22.30;64.30
56729;DHT22;42612;52.232;7.560;2023-07-24T04:47:15;22.30;63.70
56729;DHT22;42612;52.232;7.560;2023-07-24T04:49:41;22.30;63.70
56729;DHT22;42612;52.232;7.560;2023-07-24T04:52:06;22.30;63.70
56729;DHT22;42612;52.232;7.560;2023-07-24T04:54:32;22.30;63.70
56729;DHT22;42612;52.232;7.560;2023-07-24T04:56:57;22.30;63.60
56729;DHT22;42612;52.232;7.560;2023-07-24T04:59:23;22.20;63.60
56729;DHT22;42612;52.232;7.560;2023-07-24T05:01:49;22.30;63.60
56729;DHT22;42612;52.232;7.560;2023-07-24T05:04:15;22.20;63.60
56729;DHT22;42612;52.232;7.560;2023-07-24T05:06:40;22.30;63.60
56729;DHT22;42612;52.232;7.560;2023-07-24T05:09:06;22.20;63.70
56729;DHT22;42612;52.232;7.560;2023-07-24T05:11:32;22.20;63.70
56729;DHT22;42612;52.232;7.560;2023-07-24T05:13:57;22.20;63.70
56729;DHT22;42612;52.232;7.560;2023-07-24T05:16:23;22.20;63.80
56729;DHT22;42612;52.232;7.560;2023-07-24T05:18:48;22.20;63.80
56729;DHT22;42612;52.232;7.560;2023-07-24T05:21:14;22.20;64.20
56729;DHT22;42612;52.232;7.560;2023-07-24T05:23:40;22.20;64.30
56729;DHT22;42612;52.232;7.560;2023-07-24T05:26:05;22.20;64.00
56729;DHT22;42612;52.232;7.560;2023-07-24T05:28:31;22.20;64.00
56729;DHT22;42612;52.232;7.560;2023-07-24T05:31:03;22.10;64.20
56729;DHT22;42612;52.232;7.560;2023-07-24T05:33:30;22.10;64.00
56729;DHT22;42612;52.232;7.560;2023-07-24T05:35:59;22.10;64.10
56729;DHT22;42612;52.232;7.560;2023-07-24T05:38:26;22.10;64.10
56729;DHT22;42612;52.232;7.560;2023-07-24T05:40:58;22.10;64.10
56729;DHT22;42612;52.232;7.560;2023-07-24T05:43:24;22.10;64.20
56729;DHT22;42612;52.232;7.560;2023-07-24T05:45:51;22.10;64.60
56729;DHT22;42612;52.232;7.560;2023-07-24T05:48:17;22.00;64.20
56729;DHT22;42612;52.232;7.560;2023-07-24T05:50:42;22.00;64.30
56729;DHT22;42612;52.232;7.560;2023-07-24T05:53:08;22.00;64.20
56729;DHT22;42612;52.232;7.560;2023-07-24T05:55:34;22.00;64.30
56729;DHT22;42612;52.232;7.560;2023-07-24T05:57:59;22.00;64.30
56729;DHT22;42612;52.232;7.560;2023-07-24T06:00:25;22.10;64.20
56729;DHT22;42612;52.232;7.560;2023-07-24T06:02:50;22.00;64.30
56729;DHT22;42612;52.232;7.560;2023-07-24T06:05:16;22.00;65.10
56729;DHT22;42612;52.232;7.560;2023-07-24T06:07:41;22.10;64.20
56729;DHT22;42612;52.232;7.560;2023-07-24T06:10:07;22.10;64.10
56729;DHT22;42612;52.232;7.560;2023-07-24T06:12:33;22.10;64.20
56729;DHT22;42612;52.232;7.560;2023-07-24T06:14:58;22.10;63.90
56729;DHT22;42612;52.232;7.560;2023-07-24T06:17:24;22.00;64.00
56729;DHT22;42612;52.232;7.560;2023-07-24T06:19:50;22.00;65.20
56729;DHT22;42612;52.232;7.560;2023-07-24T06:22:15;22.00;63.80
56729;DHT22;42612;52.232;7.560;2023-07-24T06:24:41;21.90;62.90
56729;DHT22;42612;52.232;7.560;2023-07-24T06:27:07;21.90;62.60
56729;DHT22;42612;52.232;7.560;2023-07-24T06:29:32;21.80;62.80
56729;DHT22;42612;52.232;7.560;2023-07-24T06:31:58;21.80;63.40
56729;DHT22;42612;52.232;7.560;2023-07-24T06:34:24;21.80;63.90
56729;DHT22;42612;52.232;7.560;2023-07-24T06:36:49;21.70;63.40
56729;DHT22;42612;52.232;7.560;2023-07-24T06:39:15;21.70;63.30
56729;DHT22;42612;52.232;7.560;2023-07-24T06:41:41;21.60;63.50
56729;DHT22;42612;52.232;7.560;2023-07-24T06:44:07;21.60;64.00
56729;DHT22;42612;52.232;7.560;2023-07-24T06:46:32;21.60;63.10
56729;DHT22;42612;52.232;7.560;2023-07-24T06:48:59;21.60;63.40
56729;DHT22;42612;52.232;7.560;2023-07-24T06:51:24;21.50;63.40
56729;DHT22;42612;52.232;7.560;2023-07-24T06:53:50;21.50;63.60
56729;DHT22;42612;52.232;7.560;2023-07-24T06:56:16;21.50;63.70
56729;DHT22;42612;52.232;7.560;2023-07-24T06:58:41;21.50;63.70
56729;DHT22;42612;52.232;7.560;2023-07-24T07:01:07;21.50;63.40
56729;DHT22;42612;52.232;7.560;2023-07-24T07:03:33;21.40;63.60
56729;DHT22;42612;52.232;7.560;2023-07-24T07:06:02;21.40;63.70
56729;DHT22;42612;52.232;7.560;2023-07-24T07:08:28;21.40;64.00
56729;DHT22;42612;52.232;7.560;2023-07-24T07:10:58;21.40;63.80
56729;DHT22;42612;52.232;7.560;2023-07-24T07:13:25;21.50;64.10
56729;DHT22;42612;52.232;7.560;2023-07-24T07:15:51;21.50;64.20
56729;DHT22;42612;52.232;7.560;2023-07-24T07:18:17;21.50;64.20
56729;DHT22;42612;52.232;7.560;2023-07-24T07:20:46;21.50;64.10
56729;DHT22;42612;52.232;7.560;2023-07-24T07:23:12;21.60;64.00
56729;DHT22;42612;52.232;7.560;2023-07-24T07:25:37;21.60;64.30
56729;DHT22;42612;52.232;7.560;2023-07-24T07:28:03;21.60;64.40
56729;DHT22;42612;52.232;7.560;2023-07-24T07:30:29;21.60;64.10
56729;DHT22;42612;52.232;7.560;2023-07-24T07:32:54;21.70;64.00
56729;DHT22;42612;52.232;7.560;2023-07-24T07:35:20;21.70;64.00
56729;DHT22;42612;52.232;7.560;2023-07-24T07:37:45;21.70;64.10
56729;DHT22;42612;52.232;7.560;2023-07-24T07:40:11;21.80;64.50
56729;DHT22;42612;52.232;7.560;2023-07-24T07:42:37;21.80;64.60
56729;DHT22;42612;52.232;7.560;2023-07-24T07:45:02;21.80;64.10
56729;DHT22;42612;52.232;7.560;2023-07-24T07:47:28;21.80;64.20
56729;DHT22;42612;52.232;7.560;2023-07-24T07:49:54;21.90;64.00
56729;DHT22;42612;52.232;7.560;2023-07-24T07:52:20;21.90;63.80
56729;DHT22;42612;52.232;7.560;2023-07-24T07:54:47;21.90;63.60
56729;DHT22;42612;52.232;7.560;2023-07-24T07:57:15;21.90;63.60
56729;DHT22;42612;52.232;7.560;2023-07-24T07:59:41;21.90;63.60
56729;DHT22;42612;52.232;7.560;2023-07-24T08:02:07;21.90;63.60
56729;DHT22;42612;52.232;7.560;2023-07-24T08:04:33;21.90;63.80
56729;DHT22;42612;52.232;7.560;2023-07-24T08:06:59;21.90;63.80
56729;DHT22;42612;52.232;7.560;2023-07-24T08:09:24;21.90;63.70
56729;DHT22;42612;52.232;7.560;2023-07-24T08:11:50;21.90;63.60
56729;DHT22;42612;52.232;7.560;2023-07-24T08:14:17;21.90;63.60
56729;DHT22;42612;52.232;7.560;2023-07-24T08:16:42;21.90;63.60
56729;DHT22;42612;52.232;7.560;2023-07-24T08:19:08;22.00;64.10
56729;DHT22;42612;52.232;7.560;2023-07-24T08:21:34;21.90;63.70
56729;DHT22;42612;52.232;7.560;2023-07-24T08:23:59;21.90;63.30
56729;DHT22;42612;52.232;7.560;2023-07-24T08:26:27;21.90;63.40
56729;DHT22;42612;52.232;7.560;2023-07-24T08:28:53;21.90;63.40
56729;DHT22;42612;52.232;7.560;2023-07-24T08:31:18;22.00;63.40
56729;DHT22;42612;52.232;7.560;2023-07-24T08:33:44;21.90;63.20
56729;DHT22;42612;52.232;7.560;2023-07-24T08:36:10;22.00;63.40
56729;DHT22;42612;52.232;7.560;2023-07-24T08:38:37;22.00;63.70
56729;DHT22;42612;52.232;7.560;2023-07-24T08:41:04;22.00;63.20
56729;DHT22;42612;52.232;7.560;2023-07-24T08:43:31;22.00;63.30
56729;DHT22;42612;52.232;7.560;2023-07-24T08:45:57;22.00;63.20
56729;DHT22;42612;52.232;7.560;2023-07-24T08:48:31;22.00;63.10
56729;DHT22;42612;52.232;7.560;2023-07-24T08:53:30;22.00;63.30
56729;DHT22;42612;52.232;7.560;2023-07-24T08:55:56;22.10;63.30
56729;DHT22;42612;52.232;7.560;2023-07-24T08:58:22;22.10;63.60
56729;DHT22;42612;52.232;7.560;2023-07-24T09:00:48;22.10;63.60
56729;DHT22;42612;52.232;7.560;2023-07-24T09:03:14;22.10;63.50
56729;DHT22;42612;52.232;7.560;2023-07-24T09:05:39;22.20;63.60
56729;DHT22;42612;52.232;7.560;2023-07-24T09:08:08;22.20;63.50
56729;DHT22;42612;52.232;7.560;2023-07-24T09:10:34;22.20;63.30
56729;DHT22;42612;52.232;7.560;2023-07-24T09:12:59;22.30;63.30
56729;DHT22;42612;52.232;7.560;2023-07-24T09:15:25;22.30;63.20
56729;DHT22;42612;52.232;7.560;2023-07-24T09:17:51;22.30;63.20
56729;DHT22;42612;52.232;7.560;2023-07-24T09:20:18;22.30;63.40
56729;DHT22;42612;52.232;7.560;2023-07-24T09:22:48;22.40;63.30
56729;DHT22;42612;52.232;7.560;2023-07-24T09:25:14;22.40;63.30
56729;DHT22;42612;52.232;7.560;2023-07-24T09:27:40;22.40;63.20
56729;DHT22;42612;52.232;7.560;2023-07-24T09:30:12;22.50;63.30
56729;DHT22;42612;52.232;7.560;2023-07-24T09:32:39;22.50;63.50
56729;DHT22;42612;52.232;7.560;2023-07-24T09:35:15;22.60;63.30
56729;DHT22;42612;52.232;7.560;2023-07-24T09:37:42;22.60;63.10
56729;DHT22;42612;52.232;7.560;2023-07-24T09:40:08;22.70;63.10
56729;DHT22;42612;52.232;7.560;2023-07-24T09:42:35;22.70;63.00
56729;DHT22;42612;52.232;7.560;2023-07-24T09:45:02;22.80;63.00
56729;DHT22;42612;52.232;7.560;2023-07-24T09:47:28;22.80;62.90
56729;DHT22;42612;52.232;7.560;2023-07-24T09:49:54;22.80;62.90
56729;DHT22;42612;52.232;7.560;2023-07-24T09:52:20;22.80;62.70
56729;DHT22;42612;52.232;7.560;2023-07-24T09:54:55;22.80;62.60
56729;DHT22;42612;52.232;7.560;2023-07-24T09:57:24;22.90;62.60
56729;DHT22;42612;52.232;7.560;2023-07-24T09:59:51;22.90;61.10
56729;DHT22;42612;52.232;7.560;2023-07-24T10:02:18;22.90;62.10
56729;DHT22;42612;52.232;7.560;2023-07-24T10:04:44;22.90;62.20
56729;DHT22;42612;52.232;7.560;2023-07-24T10:07:10;22.90;62.20
56729;DHT22;42612;52.232;7.560;2023-07-24T10:09:36;23.00;62.40
56729;DHT22;42612;52.232;7.560;2023-07-24T10:12:02;23.00;62.30
56729;DHT22;42612;52.232;7.560;2023-07-24T10:14:28;23.00;62.20
56729;DHT22;42612;52.232;7.560;2023-07-24T10:16:55;23.00;62.30
56729;DHT22;42612;52.232;7.560;2023-07-24T10:19:21;23.00;62.20
56729;DHT22;42612;52.232;7.560;2023-07-24T10:21:47;23.00;62.00
56729;DHT22;42612;52.232;7.560;2023-07-24T10:24:14;23.00;62.10
56729;DHT22;42612;52.232;7.560;2023-07-24T10:26:40;23.00;62.10
56729;DHT22;42612;52.232;7.560;2023-07-24T10:29:06;23.10;62.10
56729;DHT22;42612;52.232;7.560;2023-07-24T10:31:32;23.10;61.90
56729;DHT22;42612;52.232;7.560;2023-07-24T10:34:06;23.10;62.80
56729;DHT22;42612;52.232;7.560;2023-07-24T10:36:36;23.10;62.00
56729;DHT22;42612;52.232;7.560;2023-07-24T10:39:02;23.20;61.80
56729;DHT22;42612;52.232;7.560;2023-07-24T10:41:34;23.20;61.90
56729;DHT22;42612;52.232;7.560;2023-07-24T10:44:00;23.20;62.00
56729;DHT22;42612;52.232;7.560;2023-07-24T10:46:35;23.20;61.70
56729;DHT22;42612;52.232;7.560;2023-07-24T10:49:02;23.20;62.00
56729;DHT22;42612;52.232;7.560;2023-07-24T10:51:31;23.20;61.20
56729;DHT22;42612;52.232;7.560;2023-07-24T10:54:03;23.30;61.70
56729;DHT22;42612;52.232;7.560;2023-07-24T10:56:29;23.30;61.50
56729;DHT22;42612;52.232;7.560;2023-07-24T10:58:54;23.30;61.50
56729;DHT22;42612;52.232;7.560;2023-07-24T11:01:20;23.30;61.40
56729;DHT22;42612;52.232;7.560;2023-07-24T11:03:46;23.30;61.40
56729;DHT22;42612;52.232;7.560;2023-07-24T11:06:19;23.30;61.40
56729;DHT22;42612;52.232;7.560;2023-07-24T11:08:53;23.30;61.40
56729;DHT22;42612;52.232;7.560;2023-07-24T11:11:33;23.30;61.30
56729;DHT22;42612;52.232;7.560;2023-07-24T11:14:00;23.30;61.30
56729;DHT22;42612;52.232;7.560;2023-07-24T11:16:27;23.30;61.30
56729;DHT22;42612;52.232;7.560;2023-07-24T11:18:53;23.30;61.90
56729;DHT22;42612;52.232;7.560;2023-07-24T11:21:19;23.40;61.60
56729;DHT22;42612;52.232;7.560;2023-07-24T11:23:48;23.40;61.60
56729;DHT22;42612;52.232;7.560;2023-07-24T11:26:15;23.50;61.40
56729;DHT22;42612;52.232;7.560;2023-07-24T11:28:41;23.60;61.10
56729;DHT22;42612;52.232;7.560;2023-07-24T11:31:07;23.60;61.50
56729;DHT22;42612;52.232;7.560;2023-07-24T11:33:32;23.70;60.80
56729;DHT22;42612;52.232;7.560;2023-07-24T11:35:58;23.70;61.30
56729;DHT22;42612;52.232;7.560;2023-07-24T11:38:24;23.80;61.30
56729;DHT22;42612;52.232;7.560;2023-07-24T11:40:50;23.90;61.40
56729;DHT22;42612;52.232;7.560;2023-07-24T11:43:16;24.10;61.60
56729;DHT22;42612;52.232;7.560;2023-07-24T11:45:42;24.20;61.40
56729;DHT22;42612;52.232;7.560;2023-07-24T11:48:09;24.20;61.90
56729;DHT22;42612;52.232;7.560;2023-07-24T11:50:46;24.30;61.00
56729;DHT22;42612;52.232;7.560;2023-07-24T11:53:23;24.40;60.90
56729;DHT22;42612;52.232;7.560;2023-07-24T11:55:51;24.40;60.70
56729;DHT22;42612;52.232;7.560;2023-07-24T11:58:17;24.40;59.90
56729;DHT22;42612;52.232;7.560;2023-07-24T12:00:43;24.40;60.20
56729;DHT22;42612;52.232;7.560;2023-07-24T12:03:09;24.40;60.00
56729;DHT22;42612;52.232;7.560;2023-07-24T12:05:38;24.40;59.90
56729;DHT22;42612;52.232;7.560;2023-07-24T12:08:07;24.30;59.60
56729;DHT22;42612;52.232;7.560;2023-07-24T12:10:35;24.30;59.60
56729;DHT22;42612;52.232;7.560;2023-07-24T12:13:02;24.20;59.30
56729;DHT22;42612;52.232;7.560;2023-07-24T12:15:27;24.10;59.50
56729;DHT22;42612;52.232;7.560;2023-07-24T12:17:53;24.10;59.40
56729;DHT22;42612;52.232;7.560;2023-07-24T12:20:19;24.10;59.40
56729;DHT22;42612;52.232;7.560;2023-07-24T12:22:45;24.10;59.40
56729;DHT22;42612;52.232;7.560;2023-07-24T12:25:11;24.00;59.80
56729;DHT22;42612;52.232;7.560;2023-07-24T12:27:37;24.10;59.60
56729;DHT22;42612;52.232;7.560;2023-07-24T12:30:05;24.00;59.30
56729;DHT22;42612;52.232;7.560;2023-07-24T12:32:31;24.00;59.60
56729;DHT22;42612;52.232;7.560;2023-07-24T12:34:57;24.00;59.50
56729;DHT22;42612;52.232;7.560;2023-07-24T12:37:22;24.00;59.40
56729;DHT22;42612;52.232;7.560;2023-07-24T12:39:48;24.00;59.50
56729;DHT22;42612;52.232;7.560;2023-07-24T12:42:14;24.00;59.60
56729;DHT22;42612;52.232;7.560;2023-07-24T12:44:41;24.00;59.50
56729;DHT22;42612;52.232;7.560;2023-07-24T12:47:07;23.90;59.30
56729;DHT22;42612;52.232;7.560;2023-07-24T12:49:33;23.90;59.20
56729;DHT22;42612;52.232;7.560;2023-07-24T12:51:59;23.90;59.30
56729;DHT22;42612;52.232;7.560;2023-07-24T12:54:25;23.90;59.00
56729;DHT22;42612;52.232;7.560;2023-07-24T12:56:50;23.90;59.10
56729;DHT22;42612;52.232;7.560;2023-07-24T12:59:17;23.80;59.30
56729;DHT22;42612;52.232;7.560;2023-07-24T13:01:43;23.80;58.90
56729;DHT22;42612;52.232;7.560;2023-07-24T13:04:09;23.80;58.90
56729;DHT22;42612;52.232;7.560;2023-07-24T13:06:34;23.80;59.00
56729;DHT22;42612;52.232;7.560;2023-07-24T13:09:00;23.80;57.00
56729;DHT22;42612;52.232;7.560;2023-07-24T13:11:26;23.70;56.40
56729;DHT22;42612;52.232;7.560;2023-07-24T13:13:53;23.70;57.80
56729;DHT22;42612;52.232;7.560;2023-07-24T13:16:19;23.70;57.90
56729;DHT22;42612;52.232;7.560;2023-07-24T13:18:45;23.70;58.40
56729;DHT22;42612;52.232;7.560;2023-07-24T13:21:10;23.70;58.70
56729;DHT22;42612;52.232;7.560;2023-07-24T13:23:36;23.70;59.00
56729;DHT22;42612;52.232;7.560;2023-07-24T13:26:01;23.70;59.10
56729;DHT22;42612;52.232;7.560;2023-07-24T13:28:27;23.80;58.90
56729;DHT22;42612;52.232;7.560;2023-07-24T13:30:53;23.80;57.60
56729;DHT22;42612;52.232;7.560;2023-07-24T13:33:19;23.90;58.50
56729;DHT22;42612;52.232;7.560;2023-07-24T13:35:47;23.90;56.50
56729;DHT22;42612;52.232;7.560;2023-07-24T13:38:12;24.00;55.90
56729;DHT22;42612;52.232;7.560;2023-07-24T13:40:38;24.10;58.70
56729;DHT22;42612;52.232;7.560;2023-07-24T13:43:04;24.10;58.50
56729;DHT22;42612;52.232;7.560;2023-07-24T13:45:30;24.10;58.80
56729;DHT22;42612;52.232;7.560;2023-07-24T13:47:56;24.20;58.90
56729;DHT22;42612;52.232;7.560;2023-07-24T13:50:22;24.20;59.10
56729;DHT22;42612;52.232;7.560;2023-07-24T13:52:48;24.30;58.40
56729;DHT22;42612;52.232;7.560;2023-07-24T13:55:14;24.40;58.60
56729;DHT22;42612;52.232;7.560;2023-07-24T13:57:40;24.50;58.80
56729;DHT22;42612;52.232;7.560;2023-07-24T14:00:06;24.70;56.40
56729;DHT22;42612;52.232;7.560;2023-07-24T14:02:32;24.80;58.90
56729;DHT22;42612;52.232;7.560;2023-07-24T14:04:58;24.90;54.10
56729;DHT22;42612;52.232;7.560;2023-07-24T14:07:23;24.90;55.80
56729;DHT22;42612;52.232;7.560;2023-07-24T14:09:49;24.90;57.10
56729;DHT22;42612;52.232;7.560;2023-07-24T14:12:14;25.00;54.40
56729;DHT22;42612;52.232;7.560;2023-07-24T14:14:40;25.00;56.40
56729;DHT22;42612;52.232;7.560;2023-07-24T14:17:06;25.10;57.60
56729;DHT22;42612;52.232;7.560;2023-07-24T14:19:31;25.10;57.20
56729;DHT22;42612;52.232;7.560;2023-07-24T14:21:57;25.10;57.20
56729;DHT22;42612;52.232;7.560;2023-07-24T14:24:22;25.10;57.60
56729;DHT22;42612;52.232;7.560;2023-07-24T14:26:48;25.10;57.20
56729;DHT22;42612;52.232;7.560;2023-07-24T14:29:14;25.20;57.50
56729;DHT22;42612;52.232;7.560;2023-07-24T14:31:42;25.20;56.20
56729;DHT22;42612;52.232;7.560;2023-07-24T14:34:08;25.30;56.80
56729;DHT22;42612;52.232;7.560;2023-07-24T14:36:36;25.30;57.30
56729;DHT22;42612;52.232;7.560;2023-07-24T14:39:02;25.40;57.20
56729;DHT22;42612;52.232;7.560;2023-07-24T14:41:28;25.50;57.80
56729;DHT22;42612;52.232;7.560;2023-07-24T14:43:54;25.50;57.30
56729;DHT22;42612;52.232;7.560;2023-07-24T14:46:20;25.50;56.80
56729;DHT22;42612;52.232;7.560;2023-07-24T14:48:45;25.60;57.20
56729;DHT22;42612;52.232;7.560;2023-07-24T14:51:11;25.60;56.80
56729;DHT22;42612;52.232;7.560;2023-07-24T14:53:37;25.70;57.30
56729;DHT22;42612;52.232;7.560;2023-07-24T14:56:03;25.70;57.10
56729;DHT22;42612;52.232;7.560;2023-07-24T14:58:29;25.80;56.80
56729;DHT22;42612;52.232;7.560;2023-07-24T15:00:54;25.80;56.90
56729;DHT22;42612;52.232;7.560;2023-07-24T15:03:20;25.80;56.40
56729;DHT22;42612;52.232;7.560;2023-07-24T15:05:46;25.80;56.50
56729;DHT22;42612;52.232;7.560;2023-07-24T15:08:12;25.80;56.40
56729;DHT22;42612;52.232;7.560;2023-07-24T15:10:38;25.80;56.10
56729;DHT22;42612;52.232;7.560;2023-07-24T15:13:03;25.80;56.10
56729;DHT22;42612;52.232;7.560;2023-07-24T15:15:29;25.90;56.60
56729;DHT22;42612;52.232;7.560;2023-07-24T15:17:55;25.90;56.60
56729;DHT22;42612;52.232;7.560;2023-07-24T15:20:21;25.90;56.10
56729;DHT22;42612;52.232;7.560;2023-07-24T15:22:47;26.00;54.70
56729;DHT22;42612;52.232;7.560;2023-07-24T15:25:12;26.00;55.60
56729;DHT22;42612;52.232;7.560;2023-07-24T15:27:39;26.00;55.70
56729;DHT22;42612;52.232;7.560;2023-07-24T15:30:05;26.00;55.70
56729;DHT22;42612;52.232;7.560;2023-07-24T15:32:31;26.00;55.70